TimeEST,TemperatureF,Dew PointF,Humidity,Sea Level PressureIn,VisibilityMPH,Wind Direction,Wind SpeedMPH,Gust SpeedMPH,PrecipitationIn,Events,Conditions,WindDirDegrees,DateUTC
12:18 AM,50.0,46.4,87,30.18,5.0,WNW,19.6,32.2,N/A,Rain,Rain,300,2012-11-13 05:18:00
12:55 AM,48.2,44.6,87,30.19,9.0,NW,16.1,24.2,0.09,Rain,Light Rain,310,2012-11-13 05:55:00
1:55 AM,47.3,43.5,87,30.23,9.0,West,10.4,-,0.04,Rain,Light Rain,280,2012-11-13 06:55:00
2:36 AM,46.4,42.8,87,30.25,9.0,NW,8.1,-,N/A,Rain,Light Rain,320,2012-11-13 07:36:00
2:47 AM,46.4,41.0,81,30.25,10.0,NW,13.8,24.2,N/A,Rain,Light Rain,320,2012-11-13 07:47:00
2:55 AM,45.3,40.6,84,30.26,10.0,WNW,11.5,24.2,0.06,Rain,Light Rain,290,2012-11-13 07:55:00
3:02 AM,44.6,39.2,81,30.26,10.0,NW,17.3,25.3,N/A,Rain,Light Rain,310,2012-11-13 08:02:00
3:05 AM,44.6,39.2,81,30.25,10.0,WNW,11.5,25.3,N/A,Rain,Light Rain,300,2012-11-13 08:05:00
3:55 AM,43.2,37.4,80,30.27,8.0,West,10.4,-,0.02,Rain,Light Rain,280,2012-11-13 08:55:00
4:55 AM,41.9,36.1,80,30.28,7.0,Variable,3.5,-,0.09,Rain,Rain,0,2012-11-13 09:55:00
5:00 AM,41.0,37.4,87,30.28,6.0,Calm,Calm,-,N/A,Rain,Light Rain,0,2012-11-13 10:00:00
5:41 AM,41.0,37.4,87,30.31,6.0,WNW,4.6,17.3,N/A,Rain,Rain,300,2012-11-13 10:41:00
5:55 AM,40.6,36.5,85,30.31,4.0,Variable,5.8,-,0.13,Rain,Heavy Rain,0,2012-11-13 10:55:00
6:18 AM,41.0,35.6,81,30.35,9.0,West,11.5,16.1,N/A,Rain,Light Rain,280,2012-11-13 11:18:00
6:25 AM,39.2,35.6,87,30.32,5.0,Variable,5.8,-,N/A,Rain,Heavy Rain,0,2012-11-13 11:25:00
6:26 AM,39.2,35.6,87,30.32,5.0,Variable,5.8,-,N/A,Rain,Heavy Rain,0,2012-11-13 11:26:00
6:29 AM,39.2,35.6,87,30.32,4.0,Variable,5.8,-,N/A,Rain,Rain,0,2012-11-13 11:29:00
6:42 AM,39.2,35.6,87,30.34,6.0,Variable,3.5,-,N/A,Rain,Rain,0,2012-11-13 11:42:00
6:44 AM,39.2,35.6,87,30.33,6.0,Calm,Calm,-,N/A,Rain,Rain,0,2012-11-13 11:44:00
6:55 AM,38.8,34.5,84,30.34,6.0,Calm,Calm,-,0.20,Rain,Light Rain,0,2012-11-13 11:55:00
6:57 AM,39.2,35.6,87,30.34,7.0,North,3.5,-,N/A,Rain,Light Rain,350,2012-11-13 11:57:00
7:05 AM,39.2,33.8,81,30.34,10.0,Calm,Calm,-,N/A,Rain,Light Rain,0,2012-11-13 12:05:00
7:06 AM,39.2,33.8,81,30.34,10.0,Calm,Calm,-,N/A,,Light Drizzle,0,2012-11-13 12:06:00
7:10 AM,39.2,33.8,81,30.35,10.0,WNW,8.1,-,N/A,,Light Drizzle,290,2012-11-13 12:10:00
7:16 AM,39.2,33.8,81,30.35,10.0,NW,5.8,-,N/A,,Mostly Cloudy,320,2012-11-13 12:16:00
7:33 AM,39.2,33.8,81,30.35,10.0,Variable,4.6,-,N/A,,Mostly Cloudy,0,2012-11-13 12:33:00
7:55 AM,40.1,34.2,79,30.37,10.0,WNW,9.2,17.3,0.01,,Overcast,290,2012-11-13 12:55:00
8:52 AM,39.2,30.2,70,30.38,10.0,WNW,9.2,18.4,N/A,,Mostly Cloudy,290,2012-11-13 13:52:00
8:55 AM,39.6,30.2,69,30.38,10.0,WNW,8.1,17.3,N/A,,Mostly Cloudy,300,2012-11-13 13:55:00
9:55 AM,40.1,28.9,64,30.40,10.0,NNW,6.9,-,N/A,,Scattered Clouds,330,2012-11-13 14:55:00
10:55 AM,42.4,29.7,61,30.40,10.0,Variable,5.8,-,N/A,,Partly Cloudy,0,2012-11-13 15:55:00
11:55 AM,45.0,27.1,50,30.37,10.0,North,8.1,-,N/A,,Clear,360,2012-11-13 16:55:00
12:55 PM,45.9,26.1,46,30.36,10.0,NW,13.8,21.9,N/A,,Clear,320,2012-11-13 17:55:00
1:55 PM,46.8,26.4,45,30.35,10.0,North,10.4,-,N/A,,Clear,360,2012-11-13 18:55:00
2:55 PM,46.4,26.2,45,30.35,10.0,NNW,8.1,19.6,N/A,,Clear,330,2012-11-13 19:55:00
3:55 PM,45.7,24.8,44,30.38,10.0,NNW,11.5,-,N/A,,Clear,340,2012-11-13 20:55:00
4:55 PM,43.2,23.9,47,30.40,10.0,WNW,6.9,-,N/A,,Clear,300,2012-11-13 21:55:00
5:55 PM,41.2,24.4,51,30.42,10.0,NW,5.8,-,N/A,,Clear,320,2012-11-13 22:55:00
6:55 PM,41.5,24.6,51,30.44,10.0,Calm,Calm,-,N/A,,Overcast,0,2012-11-13 23:55:00
7:55 PM,41.4,26.1,55,30.46,10.0,Variable,5.8,-,N/A,,Overcast,0,2012-11-14 00:55:00
8:55 PM,39.9,26.1,58,30.48,10.0,NW,4.6,-,N/A,,Overcast,310,2012-11-14 01:55:00
9:55 PM,39.7,25.7,57,30.49,10.0,Calm,Calm,-,N/A,,Overcast,0,2012-11-14 02:55:00
10:55 PM,39.6,26.2,59,30.50,10.0,Calm,Calm,-,N/A,,Overcast,0,2012-11-14 03:55:00
11:55 PM,39.4,27.0,61,30.49,10.0,Variable,4.6,-,N/A,,Overcast,0,2012-11-14 04:55:00